sensor_id;sensor_type;location;lat;lon;timestamp;pressure;altitude;pressure_sealevel;temperature;humidity
55604;BME280;41468;48.838;9.330;2022-09-21T00:01:54;99148.88;;;8.59;80.81
55604;BME280;41468;48.838;9.330;2022-09-21T00:04:27;99137.28;;;8.50;81.17
55604;BME280;41468;48.838;9.330;2022-09-21T00:06:57;99138.88;;;8.63;80.36
55604;BME280;41468;48.838;9.330;2022-09-21T00:09:27;99135.00;;;8.40;80.81
55604;BME280;41468;48.838;9.330;2022-09-21T00:11:56;99136.38;;;8.46;80.12
55604;BME280;41468;48.838;9.330;2022-09-21T00:14:26;99131.38;;;8.48;79.87
55604;BME280;41468;48.838;9.330;2022-09-21T00:16:57;99136.69;;;8.32;80.58
55604;BME280;41468;48.838;9.330;2022-09-21T00:19:29;99140.34;;;8.36;79.99
55604;BME280;41468;48.838;9.330;2022-09-21T00:21:59;99138.63;;;8.32;79.94
55604;BME280;41468;48.838;9.330;2022-09-21T00:24:28;99134.47;;;8.01;80.33
55604;BME280;41468;48.838;9.330;2022-09-21T00:26:59;99139.25;;;8.04;80.62
55604;BME280;41468;48.838;9.330;2022-09-21T00:29:28;99129.94;;;8.05;80.97
55604;BME280;41468;48.838;9.330;2022-09-21T00:31:58;99138.94;;;7.72;83.73
55604;BME280;41468;48.838;9.330;2022-09-21T00:34:30;99134.22;;;7.94;81.68
55604;BME280;41468;48.838;9.330;2022-09-21T00:37:00;99139.22;;;7.92;83.19
55604;BME280;41468;48.838;9.330;2022-09-21T00:39:30;99141.50;;;7.90;83.58
55604;BME280;41468;48.838;9.330;2022-09-21T00:41:59;99129.72;;;7.98;81.40
55604;BME280;41468;48.838;9.330;2022-09-21T00:44:31;99135.03;;;7.94;81.00
55604;BME280;41468;48.838;9.330;2022-09-21T00:47:05;99135.34;;;7.59;83.97
55604;BME280;41468;48.838;9.330;2022-09-21T00:49:39;99136.41;;;7.67;85.94
55604;BME280;41468;48.838;9.330;2022-09-21T00:52:11;99138.81;;;7.48;86.21
55604;BME280;41468;48.838;9.330;2022-09-21T00:54:43;99136.75;;;7.24;87.76
55604;BME280;41468;48.838;9.330;2022-09-21T00:57:14;99134.47;;;7.05;88.13
55604;BME280;41468;48.838;9.330;2022-09-21T00:59:47;99137.88;;;7.23;87.24
55604;BME280;41468;48.838;9.330;2022-09-21T01:02:18;99134.03;;;7.24;86.66
55604;BME280;41468;48.838;9.330;2022-09-21T01:04:51;99134.31;;;7.31;87.74
55604;BME280;41468;48.838;9.330;2022-09-21T01:07:25;99134.00;;;7.87;84.73
55604;BME280;41468;48.838;9.330;2022-09-21T01:10:00;99136.47;;;7.79;83.93
55604;BME280;41468;48.838;9.330;2022-09-21T01:12:44;99131.28;;;7.87;82.23
55604;BME280;41468;48.838;9.330;2022-09-21T01:15:23;99123.00;;;7.95;81.58
55604;BME280;41468;48.838;9.330;2022-09-21T01:18:00;99131.63;;;7.64;81.91
55604;BME280;41468;48.838;9.330;2022-09-21T01:27:22;99131.28;;;7.87;80.69
55604;BME280;41468;48.838;9.330;2022-09-21T01:30:02;99139.72;;;7.73;81.42
55604;BME280;41468;48.838;9.330;2022-09-21T01:32:36;99146.97;;;7.69;81.05
55604;BME280;41468;48.838;9.330;2022-09-21T01:35:11;99145.03;;;7.69;81.01
55604;BME280;41468;48.838;9.330;2022-09-21T01:37:44;99147.94;;;7.52;81.55
55604;BME280;41468;48.838;9.330;2022-09-21T01:40:19;99148.69;;;7.73;80.95
55604;BME280;41468;48.838;9.330;2022-09-21T01:42:53;99148.16;;;7.80;80.48
55604;BME280;41468;48.838;9.330;2022-09-21T01:45:29;99150.50;;;7.69;80.54
55604;BME280;41468;48.838;9.330;2022-09-21T01:48:00;99152.63;;;7.43;81.18
55604;BME280;41468;48.838;9.330;2022-09-21T01:50:33;99147.06;;;7.39;81.28
55604;BME280;41468;48.838;9.330;2022-09-21T01:53:07;99150.16;;;7.29;82.36
55604;BME280;41468;48.838;9.330;2022-09-21T01:55:41;99151.19;;;7.45;82.16
55604;BME280;41468;48.838;9.330;2022-09-21T01:58:17;99144.00;;;7.61;80.87
55604;BME280;41468;48.838;9.330;2022-09-21T02:00:51;99149.13;;;7.63;80.63
55604;BME280;41468;48.838;9.330;2022-09-21T02:03:27;99145.84;;;7.49;81.10
55604;BME280;41468;48.838;9.330;2022-09-21T02:05:59;99145.50;;;7.71;80.36
55604;BME280;41468;48.838;9.330;2022-09-21T02:08:30;99145.97;;;7.73;80.50
55604;BME280;41468;48.838;9.330;2022-09-21T02:11:02;99151.16;;;7.66;80.49
55604;BME280;41468;48.838;9.330;2022-09-21T02:13:36;99142.41;;;7.39;82.18
55604;BME280;41468;48.838;9.330;2022-09-21T02:16:33;99143.13;;;7.49;82.17
55604;BME280;41468;48.838;9.330;2022-09-21T02:19:11;99144.63;;;7.16;84.52
55604;BME280;41468;48.838;9.330;2022-09-21T02:21:55;99139.41;;;7.53;83.53
55604;BME280;41468;48.838;9.330;2022-09-21T02:24:34;99135.63;;;7.46;82.74
55604;BME280;41468;48.838;9.330;2022-09-21T02:27:14;99137.56;;;7.78;81.45
55604;BME280;41468;48.838;9.330;2022-09-21T02:29:48;99135.31;;;7.80;80.87
55604;BME280;41468;48.838;9.330;2022-09-21T02:32:27;99135.75;;;7.28;82.98
55604;BME280;41468;48.838;9.330;2022-09-21T02:35:09;99127.84;;;7.35;83.16
55604;BME280;41468;48.838;9.330;2022-09-21T02:37:47;99136.88;;;7.27;84.59
55604;BME280;41468;48.838;9.330;2022-09-21T02:40:27;99132.63;;;6.96;84.59
55604;BME280;41468;48.838;9.330;2022-09-21T02:43:01;99133.47;;;6.88;85.59
55604;BME280;41468;48.838;9.330;2022-09-21T02:45:36;99129.09;;;6.96;85.38
55604;BME280;41468;48.838;9.330;2022-09-21T02:48:16;99130.19;;;6.74;86.68
55604;BME280;41468;48.838;9.330;2022-09-21T02:50:51;99135.44;;;6.79;87.14
55604;BME280;41468;48.838;9.330;2022-09-21T02:53:25;99134.50;;;6.45;88.07
55604;BME280;41468;48.838;9.330;2022-09-21T02:55:57;99137.91;;;6.25;88.95
55604;BME280;41468;48.838;9.330;2022-09-21T02:58:30;99141.84;;;6.45;88.27
55604;BME280;41468;48.838;9.330;2022-09-21T03:01:04;99132.69;;;6.11;90.49
55604;BME280;41468;48.838;9.330;2022-09-21T03:03:38;99138.31;;;5.97;91.03
55604;BME280;41468;48.838;9.330;2022-09-21T03:06:07;99136.81;;;6.17;90.33
55604;BME280;41468;48.838;9.330;2022-09-21T03:08:37;99136.09;;;5.82;92.17
55604;BME280;41468;48.838;9.330;2022-09-21T03:11:07;99133.75;;;5.63;93.83
55604;BME280;41468;48.838;9.330;2022-09-21T03:13:38;99132.63;;;5.73;94.34
55604;BME280;41468;48.838;9.330;2022-09-21T03:16:08;99137.75;;;6.30;89.99
55604;BME280;41468;48.838;9.330;2022-09-21T03:18:40;99134.38;;;6.92;85.86
55604;BME280;41468;48.838;9.330;2022-09-21T03:21:10;99139.81;;;6.92;85.05
55604;BME280;41468;48.838;9.330;2022-09-21T03:23:40;99148.81;;;7.14;83.47
55604;BME280;41468;48.838;9.330;2022-09-21T03:26:10;99147.53;;;6.90;83.80
55604;BME280;41468;48.838;9.330;2022-09-21T03:28:40;99150.44;;;6.85;84.52
55604;BME280;41468;48.838;9.330;2022-09-21T03:31:09;99148.19;;;6.87;84.56
55604;BME280;41468;48.838;9.330;2022-09-21T03:33:42;99149.66;;;7.06;82.65
55604;BME280;41468;48.838;9.330;2022-09-21T03:36:12;99156.31;;;6.96;83.10
55604;BME280;41468;48.838;9.330;2022-09-21T03:38:41;99159.03;;;6.66;84.71
55604;BME280;41468;48.838;9.330;2022-09-21T03:41:11;99158.06;;;6.92;84.09
55604;BME280;41468;48.838;9.330;2022-09-21T03:43:41;99153.72;;;6.70;86.09
55604;BME280;41468;48.838;9.330;2022-09-21T03:46:11;99150.88;;;6.66;88.17
55604;BME280;41468;48.838;9.330;2022-09-21T03:48:46;99148.94;;;6.67;86.77
55604;BME280;41468;48.838;9.330;2022-09-21T03:51:16;99151.47;;;6.72;85.11
55604;BME280;41468;48.838;9.330;2022-09-21T03:53:46;99150.88;;;6.96;84.01
55604;BME280;41468;48.838;9.330;2022-09-21T03:56:15;99150.13;;;7.08;83.26
55604;BME280;41468;48.838;9.330;2022-09-21T03:58:45;99158.84;;;7.01;82.74
55604;BME280;41468;48.838;9.330;2022-09-21T04:01:15;99147.53;;;6.90;82.84
55604;BME280;41468;48.838;9.330;2022-09-21T04:03:47;99157.94;;;6.88;82.63
55604;BME280;41468;48.838;9.330;2022-09-21T04:06:17;99146.88;;;6.93;82.46
55604;BME280;41468;48.838;9.330;2022-09-21T04:08:47;99152.59;;;7.01;82.12
55604;BME280;41468;48.838;9.330;2022-09-21T04:11:19;99160.78;;;6.92;82.09
55604;BME280;41468;48.838;9.330;2022-09-21T04:13:50;99158.69;;;6.97;81.65
55604;BME280;41468;48.838;9.330;2022-09-21T04:16:23;99158.53;;;6.94;81.54
55604;BME280;41468;48.838;9.330;2022-09-21T04:18:55;99158.63;;;6.47;84.06
55604;BME280;41468;48.838;9.330;2022-09-21T04:21:25;99158.41;;;6.61;83.26
55604;BME280;41468;48.838;9.330;2022-09-21T04:23:55;99168.97;;;6.53;84.60
55604;BME280;41468;48.838;9.330;2022-09-21T04:26:27;99169.41;;;6.26;84.60
55604;BME280;41468;48.838;9.330;2022-09-21T04:28:58;99169.50;;;6.38;85.01
55604;BME280;41468;48.838;9.330;2022-09-21T04:31:28;99167.06;;;6.54;83.20
55604;BME280;41468;48.838;9.330;2022-09-21T04:34:00;99165.81;;;6.43;84.15
55604;BME280;41468;48.838;9.330;2022-09-21T04:36:30;99166.84;;;6.68;83.85
55604;BME280;41468;48.838;9.330;2022-09-21T04:39:03;99166.91;;;6.50;85.39
55604;BME280;41468;48.838;9.330;2022-09-21T04:41:33;99175.91;;;5.78;89.52
55604;BME280;41468;48.838;9.330;2022-09-21T04:44:03;99171.19;;;6.13;88.89
55604;BME280;41468;48.838;9.330;2022-09-21T04:46:32;99177.25;;;6.19;88.29
55604;BME280;41468;48.838;9.330;2022-09-21T04:49:05;99182.53;;;6.15;89.13
55604;BME280;41468;48.838;9.330;2022-09-21T04:51:35;99185.78;;;5.91;90.12
55604;BME280;41468;48.838;9.330;2022-09-21T04:54:04;99187.97;;;6.06;88.60
55604;BME280;41468;48.838;9.330;2022-09-21T04:56:34;99179.31;;;6.22;89.47
55604;BME280;41468;48.838;9.330;2022-09-21T04:59:04;99187.84;;;5.94;90.00
55604;BME280;41468;48.838;9.330;2022-09-21T05:01:34;99192.97;;;5.52;93.82
55604;BME280;41468;48.838;9.330;2022-09-21T05:04:06;99192.03;;;5.48;92.97
55604;BME280;41468;48.838;9.330;2022-09-21T05:06:36;99188.97;;;5.84;93.90
55604;BME280;41468;48.838;9.330;2022-09-21T05:09:06;99188.75;;;6.16;89.88
55604;BME280;41468;48.838;9.330;2022-09-21T05:11:49;99195.22;;;5.50;92.83
55604;BME280;41468;48.838;9.330;2022-09-21T05:14:19;99200.13;;;6.00;92.75
55604;BME280;41468;48.838;9.330;2022-09-21T05:16:48;99203.50;;;5.97;90.39
55604;BME280;41468;48.838;9.330;2022-09-21T05:19:21;99192.25;;;6.25;90.29
55604;BME280;41468;48.838;9.330;2022-09-21T05:21:51;99203.41;;;6.32;88.95
55604;BME280;41468;48.838;9.330;2022-09-21T05:24:20;99207.47;;;6.00;89.68
55604;BME280;41468;48.838;9.330;2022-09-21T05:26:50;99194.44;;;6.40;89.16
55604;BME280;41468;48.838;9.330;2022-09-21T05:29:20;99203.97;;;6.64;87.23
55604;BME280;41468;48.838;9.330;2022-09-21T05:31:53;99200.75;;;6.62;87.41
55604;BME280;41468;48.838;9.330;2022-09-21T05:34:35;99197.13;;;6.58;86.49
55604;BME280;41468;48.838;9.330;2022-09-21T05:37:13;99199.63;;;6.63;86.96
55604;BME280;41468;48.838;9.330;2022-09-21T05:39:49;99198.28;;;6.39;88.34
55604;BME280;41468;48.838;9.330;2022-09-21T05:42:19;99210.88;;;6.44;86.50
55604;BME280;41468;48.838;9.330;2022-09-21T05:44:50;99208.44;;;6.04;88.91
55604;BME280;41468;48.838;9.330;2022-09-21T05:47:23;99211.41;;;6.37;87.09
55604;BME280;41468;48.838;9.330;2022-09-21T05:50:02;99216.41;;;6.18;88.66
55604;BME280;41468;48.838;9.330;2022-09-21T05:52:39;99222.81;;;6.13;88.30
55604;BME280;41468;48.838;9.330;2022-09-21T05:55:23;99215.34;;;6.48;86.47
55604;BME280;41468;48.838;9.330;2022-09-21T05:58:02;99213.78;;;6.47;85.41
55604;BME280;41468;48.838;9.330;2022-09-21T06:00:41;99214.84;;;6.64;85.84
55604;BME280;41468;48.838;9.330;2022-09-21T06:03:26;99213.59;;;6.91;84.19
55604;BME280;41468;48.838;9.330;2022-09-21T06:05:59;99224.09;;;6.63;84.93
55604;BME280;41468;48.838;9.330;2022-09-21T06:08:29;99223.47;;;6.66;85.94
55604;BME280;41468;48.838;9.330;2022-09-21T06:10:59;99229.28;;;6.85;84.62
55604;BME280;41468;48.838;9.330;2022-09-21T06:13:29;99224.13;;;6.54;85.93
55604;BME280;41468;48.838;9.330;2022-09-21T06:16:01;99221.38;;;6.63;84.76
55604;BME280;41468;48.838;9.330;2022-09-21T06:18:36;99234.16;;;6.62;84.39
55604;BME280;41468;48.838;9.330;2022-09-21T06:21:08;99237.06;;;5.67;89.97
55604;BME280;41468;48.838;9.330;2022-09-21T06:23:38;99236.22;;;5.92;91.01
55604;BME280;41468;48.838;9.330;2022-09-21T06:26:08;99243.88;;;6.34;87.71
55604;BME280;41468;48.838;9.330;2022-09-21T06:28:38;99239.91;;;6.05;90.13
55604;BME280;41468;48.838;9.330;2022-09-21T06:31:07;99236.91;;;5.72;92.57
55604;BME280;41468;48.838;9.330;2022-09-21T06:33:37;99244.38;;;6.10;91.33
55604;BME280;41468;48.838;9.330;2022-09-21T06:36:16;99230.41;;;6.37;89.30
55604;BME280;41468;48.838;9.330;2022-09-21T06:38:45;99236.44;;;6.51;88.32
55604;BME280;41468;48.838;9.330;2022-09-21T06:41:15;99238.34;;;6.68;87.81
55604;BME280;41468;48.838;9.330;2022-09-21T06:43:47;99236.94;;;6.53;88.38
55604;BME280;41468;48.838;9.330;2022-09-21T06:46:16;99245.63;;;6.21;90.07
55604;BME280;41468;48.838;9.330;2022-09-21T06:48:46;99241.16;;;6.25;90.22
55604;BME280;41468;48.838;9.330;2022-09-21T06:51:19;99238.03;;;6.61;88.96
55604;BME280;41468;48.838;9.330;2022-09-21T06:53:53;99236.75;;;6.59;90.00
55604;BME280;41468;48.838;9.330;2022-09-21T06:56:24;99238.13;;;6.73;89.74
55604;BME280;41468;48.838;9.330;2022-09-21T06:58:54;99238.38;;;6.98;88.35
55604;BME280;41468;48.838;9.330;2022-09-21T07:01:24;99239.53;;;6.88;88.81
55604;BME280;41468;48.838;9.330;2022-09-21T07:03:54;99239.84;;;7.16;88.64
55604;BME280;41468;48.838;9.330;2022-09-21T07:06:26;99223.88;;;7.15;88.16
55604;BME280;41468;48.838;9.330;2022-09-21T07:08:56;99235.84;;;7.14;88.67
55604;BME280;41468;48.838;9.330;2022-09-21T07:11:46;99227.25;;;7.42;87.45
55604;BME280;41468;48.838;9.330;2022-09-21T07:14:16;99234.50;;;7.58;86.25
55604;BME280;41468;48.838;9.330;2022-09-21T07:16:49;99231.09;;;7.82;86.13
55604;BME280;41468;48.838;9.330;2022-09-21T07:19:18;99234.78;;;8.20;84.62
55604;BME280;41468;48.838;9.330;2022-09-21T07:21:52;99232.69;;;8.50;82.49
55604;BME280;41468;48.838;9.330;2022-09-21T07:24:22;99226.97;;;9.13;79.46
55604;BME280;41468;48.838;9.330;2022-09-21T07:26:51;99224.22;;;9.01;80.22
55604;BME280;41468;48.838;9.330;2022-09-21T07:29:21;99232.75;;;9.11;80.51
55604;BME280;41468;48.838;9.330;2022-09-21T07:31:51;99235.34;;;9.57;78.84
55604;BME280;41468;48.838;9.330;2022-09-21T07:34:20;99230.50;;;9.78;78.32
55604;BME280;41468;48.838;9.330;2022-09-21T07:36:53;99233.31;;;9.94;77.83
55604;BME280;41468;48.838;9.330;2022-09-21T07:39:22;99235.78;;;9.99;78.00
55604;BME280;41468;48.838;9.330;2022-09-21T07:41:52;99229.72;;;10.34;77.10
55604;BME280;41468;48.838;9.330;2022-09-21T07:44:23;99235.53;;;10.04;78.48
55604;BME280;41468;48.838;9.330;2022-09-21T07:46:54;99231.47;;;10.26;77.90
55604;BME280;41468;48.838;9.330;2022-09-21T07:49:23;99242.09;;;10.60;75.97
55604;BME280;41468;48.838;9.330;2022-09-21T07:51:56;99237.59;;;10.67;75.87
55604;BME280;41468;48.838;9.330;2022-09-21T07:54:32;99237.25;;;10.53;76.46
55604;BME280;41468;48.838;9.330;2022-09-21T07:57:01;99235.38;;;10.73;75.85
55604;BME280;41468;48.838;9.330;2022-09-21T07:59:44;99237.50;;;10.64;77.34
55604;BME280;41468;48.838;9.330;2022-09-21T08:02:14;99245.13;;;10.86;76.71
55604;BME280;41468;48.838;9.330;2022-09-21T08:04:43;99235.22;;;11.13;75.76
55604;BME280;41468;48.838;9.330;2022-09-21T08:07:16;99235.53;;;11.79;73.28
55604;BME280;41468;48.838;9.330;2022-09-21T08:09:45;99233.56;;;11.60;74.35
55604;BME280;41468;48.838;9.330;2022-09-21T08:12:18;99226.19;;;11.64;73.05
55604;BME280;41468;48.838;9.330;2022-09-21T08:14:47;99234.56;;;11.71;72.88
55604;BME280;41468;48.838;9.330;2022-09-21T08:17:17;99231.91;;;12.14;71.95
55604;BME280;41468;48.838;9.330;2022-09-21T08:19:47;99231.81;;;12.49;70.21
55604;BME280;41468;48.838;9.330;2022-09-21T08:22:19;99234.31;;;12.58;70.34
55604;BME280;41468;48.838;9.330;2022-09-21T08:24:51;99242.13;;;12.79;68.80
55604;BME280;41468;48.838;9.330;2022-09-21T08:27:23;99238.91;;;12.73;69.24
55604;BME280;41468;48.838;9.330;2022-09-21T08:29:53;99235.53;;;12.83;69.28
55604;BME280;41468;48.838;9.330;2022-09-21T08:32:23;99237.81;;;13.04;68.56
55604;BME280;41468;48.838;9.330;2022-09-21T08:35:13;99236.13;;;13.46;68.52
55604;BME280;41468;48.838;9.330;2022-09-21T08:37:45;99228.13;;;13.37;69.53
55604;BME280;41468;48.838;9.330;2022-09-21T08:40:17;99230.88;;;13.64;68.00
55604;BME280;41468;48.838;9.330;2022-09-21T08:42:54;99227.34;;;13.63;67.91
55604;BME280;41468;48.838;9.330;2022-09-21T08:45:29;99228.38;;;13.82;69.34
55604;BME280;41468;48.838;9.330;2022-09-21T08:48:03;99231.25;;;13.92;68.55
55604;BME280;41468;48.838;9.330;2022-09-21T08:50:36;99234.31;;;13.87;65.67
55604;BME280;41468;48.838;9.330;2022-09-21T08:53:13;99231.91;;;13.82;65.07
55604;BME280;41468;48.838;9.330;2022-09-21T08:55:45;99228.13;;;14.31;64.65
55604;BME280;41468;48.838;9.330;2022-09-21T08:58:20;99224.66;;;14.34;65.61
55604;BME280;41468;48.838;9.330;2022-09-21T09:01:00;99220.06;;;14.45;65.08
55604;BME280;41468;48.838;9.330;2022-09-21T09:03:55;99211.00;;;14.86;64.53
55604;BME280;41468;48.838;9.330;2022-09-21T09:06:36;99215.25;;;14.76;63.67
55604;BME280;41468;48.838;9.330;2022-09-21T09:09:35;99212.38;;;14.65;63.83
55604;BME280;41468;48.838;9.330;2022-09-21T09:12:20;99207.59;;;15.03;63.87
55604;BME280;41468;48.838;9.330;2022-09-21T09:15:07;99214.56;;;15.42;63.58
55604;BME280;41468;48.838;9.330;2022-09-21T09:17:47;99214.34;;;15.13;64.45
55604;BME280;41468;48.838;9.330;2022-09-21T09:20:21;99209.00;;;15.38;64.79
55604;BME280;41468;48.838;9.330;2022-09-21T09:23:02;99212.03;;;15.19;63.89
55604;BME280;41468;48.838;9.330;2022-09-21T09:25:39;99197.25;;;15.48;63.02
55604;BME280;41468;48.838;9.330;2022-09-21T09:28:22;99197.84;;;15.86;60.70
55604;BME280;41468;48.838;9.330;2022-09-21T09:30:58;99193.66;;;15.37;61.58
55604;BME280;41468;48.838;9.330;2022-09-21T09:33:38;99198.88;;;15.60;61.61
55604;BME280;41468;48.838;9.330;2022-09-21T09:36:12;99195.16;;;16.04;60.54
55604;BME280;41468;48.838;9.330;2022-09-21T09:38:44;99181.00;;;16.27;60.07
55604;BME280;41468;48.838;9.330;2022-09-21T09:41:33;99189.25;;;16.13;60.92
55604;BME280;41468;48.838;9.330;2022-09-21T09:44:17;99186.53;;;16.27;58.45
55604;BME280;41468;48.838;9.330;2022-09-21T09:46:58;99188.16;;;16.39;58.34
55604;BME280;41468;48.838;9.330;2022-09-21T09:49:39;99186.63;;;16.81;55.56
55604;BME280;41468;48.838;9.330;2022-09-21T09:52:12;99179.47;;;16.58;51.09
55604;BME280;41468;48.838;9.330;2022-09-21T09:54:43;99183.41;;;16.43;52.39
55604;BME280;41468;48.838;9.330;2022-09-21T09:57:22;99183.03;;;16.41;55.29
55604;BME280;41468;48.838;9.330;2022-09-21T09:59:57;99183.34;;;16.04;54.70
55604;BME280;41468;48.838;9.330;2022-09-21T10:02:29;99173.13;;;16.18;54.91
55604;BME280;41468;48.838;9.330;2022-09-21T10:05:00;99164.44;;;16.13;56.09
55604;BME280;41468;48.838;9.330;2022-09-21T10:07:37;99168.81;;;16.53;54.74
55604;BME280;41468;48.838;9.330;2022-09-21T10:10:23;99170.41;;;16.97;52.05
55604;BME280;41468;48.838;9.330;2022-09-21T10:13:02;99166.06;;;17.07;51.87
55604;BME280;41468;48.838;9.330;2022-09-21T10:15:40;99166.06;;;17.07;53.52
55604;BME280;41468;48.838;9.330;2022-09-21T10:18:16;99168.44;;;17.08;54.73
55604;BME280;41468;48.838;9.330;2022-09-21T10:20:56;99162.06;;;17.37;55.05
55604;BME280;41468;48.838;9.330;2022-09-21T10:23:28;99158.84;;;17.60;54.22
55604;BME280;41468;48.838;9.330;2022-09-21T10:26:02;99159.72;;;17.35;53.63
55604;BME280;41468;48.838;9.330;2022-09-21T10:28:35;99161.28;;;17.29;54.04
55604;BME280;41468;48.838;9.330;2022-09-21T10:31:11;99154.06;;;17.67;53.31
55604;BME280;41468;48.838;9.330;2022-09-21T10:33:51;99149.38;;;17.50;52.93
55604;BME280;41468;48.838;9.330;2022-09-21T10:36:26;99149.44;;;17.32;52.82
55604;BME280;41468;48.838;9.330;2022-09-21T10:39:19;99147.09;;;17.13;53.66
55604;BME280;41468;48.838;9.330;2022-09-21T10:41:51;99145.34;;;17.69;52.84
55604;BME280;41468;48.838;9.330;2022-09-21T10:44:27;99140.59;;;18.43;51.38
55604;BME280;41468;48.838;9.330;2022-09-21T10:47:02;99143.84;;;18.86;48.63
55604;BME280;41468;48.838;9.330;2022-09-21T10:49:44;99141.66;;;19.43;47.50
55604;BME280;41468;48.838;9.330;2022-09-21T10:52:17;99139.28;;;19.07;47.60
55604;BME280;41468;48.838;9.330;2022-09-21T10:54:49;99138.28;;;18.86;43.30
55604;BME280;41468;48.838;9.330;2022-09-21T10:57:22;99148.06;;;18.50;48.41
55604;BME280;41468;48.838;9.330;2022-09-21T10:59:55;99147.84;;;19.23;48.71
55604;BME280;41468;48.838;9.330;2022-09-21T11:02:33;99133.03;;;18.96;47.33
55604;BME280;41468;48.838;9.330;2022-09-21T11:05:10;99128.69;;;19.33;48.43
55604;BME280;41468;48.838;9.330;2022-09-21T11:07:46;99133.38;;;19.73;45.63
55604;BME280;41468;48.838;9.330;2022-09-21T11:10:21;99140.69;;;18.84;48.04
55604;BME280;41468;48.838;9.330;2022-09-21T11:13:09;99139.50;;;19.23;46.63
55604;BME280;41468;48.838;9.330;2022-09-21T11:15:52;99134.13;;;19.78;43.65
55604;BME280;41468;48.838;9.330;2022-09-21T11:18:33;99143.41;;;18.36;42.99
55604;BME280;41468;48.838;9.330;2022-09-21T11:21:11;99132.47;;;18.18;45.69
55604;BME280;41468;48.838;9.330;2022-09-21T11:23:48;99135.81;;;17.91;45.07
55604;BME280;41468;48.838;9.330;2022-09-21T11:26:24;99133.28;;;17.13;46.44
55604;BME280;41468;48.838;9.330;2022-09-21T11:28:58;99131.31;;;17.13;47.04
55604;BME280;41468;48.838;9.330;2022-09-21T11:31:43;99125.84;;;16.81;48.85
55604;BME280;41468;48.838;9.330;2022-09-21T11:37:35;99118.41;;;17.87;46.37
55604;BME280;41468;48.838;9.330;2022-09-21T11:40:37;99116.16;;;17.53;47.00
55604;BME280;41468;48.838;9.330;2022-09-21T11:43:22;99113.16;;;17.16;48.85
55604;BME280;41468;48.838;9.330;2022-09-21T11:46:02;99112.81;;;16.71;48.20
55604;BME280;41468;48.838;9.330;2022-09-21T11:48:52;99108.03;;;17.07;46.02
55604;BME280;41468;48.838;9.330;2022-09-21T11:51:35;99108.38;;;17.23;45.81
55604;BME280;41468;48.838;9.330;2022-09-21T11:54:26;99102.97;;;16.84;47.79
55604;BME280;41468;48.838;9.330;2022-09-21T11:57:01;99102.97;;;16.44;46.82
55604;BME280;41468;48.838;9.330;2022-09-21T11:59:44;99094.22;;;15.85;48.13
55604;BME280;41468;48.838;9.330;2022-09-21T12:05:31;99095.66;;;15.50;49.10
55604;BME280;41468;48.838;9.330;2022-09-21T12:08:26;99096.56;;;15.80;49.14
55604;BME280;41468;48.838;9.330;2022-09-21T12:11:04;99085.59;;;16.01;48.94
55604;BME280;41468;48.838;9.330;2022-09-21T12:13:45;99089.53;;;16.50;47.30
55604;BME280;41468;48.838;9.330;2022-09-21T12:16:22;99086.41;;;16.44;47.08
55604;BME280;41468;48.838;9.330;2022-09-21T12:18:59;99082.84;;;16.15;47.26
55604;BME280;41468;48.838;9.330;2022-09-21T12:21:38;99084.59;;;15.47;48.17
55604;BME280;41468;48.838;9.330;2022-09-21T12:24:12;99085.50;;;15.69;48.11
55604;BME280;41468;48.838;9.330;2022-09-21T12:26:47;99080.06;;;16.15;46.86
55604;BME280;41468;48.838;9.330;2022-09-21T12:29:21;99082.44;;;16.56;46.42
55604;BME280;41468;48.838;9.330;2022-09-21T12:31:57;99078.50;;;16.90;45.31
55604;BME280;41468;48.838;9.330;2022-09-21T12:34:34;99073.72;;;16.97;44.20
55604;BME280;41468;48.838;9.330;2022-09-21T12:37:14;99076.06;;;17.09;44.89
55604;BME280;41468;48.838;9.330;2022-09-21T12:39:50;99072.56;;;16.70;45.42
55604;BME280;41468;48.838;9.330;2022-09-21T12:42:27;99082.84;;;16.40;45.45
55604;BME280;41468;48.838;9.330;2022-09-21T12:45:03;99074.16;;;16.24;46.08
55604;BME280;41468;48.838;9.330;2022-09-21T12:47:44;99079.66;;;15.88;47.20
55604;BME280;41468;48.838;9.330;2022-09-21T12:50:18;99067.84;;;16.23;47.94
55604;BME280;41468;48.838;9.330;2022-09-21T12:52:52;99071.41;;;16.42;46.33
55604;BME280;41468;48.838;9.330;2022-09-21T12:55:39;99067.44;;;16.68;45.50
55604;BME280;41468;48.838;9.330;2022-09-21T12:58:22;99064.22;;;17.09;45.08
55604;BME280;41468;48.838;9.330;2022-09-21T13:01:01;99065.41;;;17.12;42.41
55604;BME280;41468;48.838;9.330;2022-09-21T13:03:39;99068.16;;;17.12;40.84
55604;BME280;41468;48.838;9.330;2022-09-21T13:06:29;99065.75;;;17.21;41.74
55604;BME280;41468;48.838;9.330;2022-09-21T13:09:10;99054.59;;;17.42;41.55
55604;BME280;41468;48.838;9.330;2022-09-21T13:11:49;99065.91;;;17.76;42.99
55604;BME280;41468;48.838;9.330;2022-09-21T13:14:23;99058.31;;;17.91;42.35
55604;BME280;41468;48.838;9.330;2022-09-21T13:16:56;99055.56;;;17.88;42.99
55604;BME280;41468;48.838;9.330;2022-09-21T13:19:31;99063.53;;;17.79;42.64
55604;BME280;41468;48.838;9.330;2022-09-21T13:22:12;99060.19;;;17.35;43.26
55604;BME280;41468;48.838;9.330;2022-09-21T13:25:01;99060.88;;;17.57;43.28
55604;BME280;41468;48.838;9.330;2022-09-21T13:27:56;99062.03;;;17.60;42.49
55604;BME280;41468;48.838;9.330;2022-09-21T13:30:31;99056.09;;;17.58;42.24
55604;BME280;41468;48.838;9.330;2022-09-21T13:33:02;99047.03;;;17.53;43.15
55604;BME280;41468;48.838;9.330;2022-09-21T13:35:51;99050.28;;;17.34;42.08
55604;BME280;41468;48.838;9.330;2022-09-21T13:38:24;99045.19;;;17.29;42.05
55604;BME280;41468;48.838;9.330;2022-09-21T13:41:02;99039.59;;;17.43;41.71
55604;BME280;41468;48.838;9.330;2022-09-21T13:43:47;99049.44;;;17.48;40.99
55604;BME280;41468;48.838;9.330;2022-09-21T13:46:45;99039.69;;;17.22;40.43
55604;BME280;41468;48.838;9.330;2022-09-21T13:49:25;99040.44;;;17.33;40.51
55604;BME280;41468;48.838;9.330;2022-09-21T13:51:59;99033.59;;;17.59;42.33
55604;BME280;41468;48.838;9.330;2022-09-21T13:54:32;99035.13;;;17.67;42.63
55604;BME280;41468;48.838;9.330;2022-09-21T13:57:15;99036.31;;;17.66;42.41
55604;BME280;41468;48.838;9.330;2022-09-21T13:59:48;99039.50;;;17.65;42.31